createdAt,value
2017-12-26T00:00:49.180Z,81.39
2017-12-26T00:01:56.077Z,81.36
2017-12-26T00:03:02.830Z,81.36
2017-12-26T00:04:09.572Z,81.37
2017-12-26T00:05:16.306Z,81.34
2017-12-26T00:06:23.000Z,81.35
2017-12-26T00:07:29.700Z,81.34
2017-12-26T00:08:36.524Z,81.29
2017-12-26T00:09:43.213Z,81.27
2017-12-26T00:10:49.922Z,81.23
2017-12-26T00:11:56.613Z,81.24
2017-12-26T00:13:03.301Z,81.21
2017-12-26T00:14:10.013Z,81.16
2017-12-26T00:15:16.717Z,81.14
2017-12-26T00:16:23.387Z,81.12
2017-12-26T00:17:30.073Z,81.13
2017-12-26T00:18:36.753Z,81.08
2017-12-26T00:19:43.608Z,81.03
2017-12-26T00:20:50.315Z,80.99
2017-12-26T00:21:56.996Z,80.88
2017-12-26T00:23:03.692Z,80.86
2017-12-26T00:24:10.409Z,80.87
2017-12-26T00:25:17.116Z,80.86
2017-12-26T00:26:23.789Z,80.81
2017-12-26T00:27:30.496Z,80.76
2017-12-26T00:28:37.302Z,80.71
2017-12-26T00:29:44.024Z,80.70
2017-12-26T00:30:55.932Z,80.65
2017-12-26T00:31:57.745Z,80.60
2017-12-26T00:33:04.432Z,80.55
2017-12-26T00:34:11.156Z,80.49
2017-12-26T00:35:17.880Z,80.46
2017-12-26T00:36:24.624Z,80.42
2017-12-26T00:37:31.317Z,80.37
2017-12-26T00:38:37.996Z,80.34
2017-12-26T00:39:45.168Z,80.28
2017-12-26T00:40:51.865Z,80.23
2017-12-26T00:41:58.737Z,80.21
2017-12-26T00:43:05.464Z,80.15
2017-12-26T00:44:12.163Z,80.08
2017-12-26T00:45:18.941Z,80.04
2017-12-26T00:46:25.639Z,79.98
2017-12-26T00:47:32.440Z,79.91
2017-12-26T00:48:39.128Z,79.83
2017-12-26T00:49:45.820Z,79.83
2017-12-26T00:50:52.541Z,79.82
2017-12-26T00:51:59.220Z,79.74
2017-12-26T00:53:05.916Z,79.69
2017-12-26T00:54:12.592Z,79.65
2017-12-26T00:55:19.285Z,79.58
2017-12-26T00:56:26.006Z,79.53
2017-12-26T00:57:32.680Z,79.50
2017-12-26T00:58:39.484Z,79.47
2017-12-26T00:59:46.224Z,79.36
2017-12-26T01:00:52.981Z,79.32
2017-12-26T01:01:59.709Z,79.28
2017-12-26T01:03:06.465Z,79.25
2017-12-26T01:04:13.265Z,79.22
2017-12-26T01:05:19.994Z,79.17
2017-12-26T01:06:26.778Z,79.12
2017-12-26T01:07:33.529Z,79.07
2017-12-26T01:08:40.377Z,79.01
2017-12-26T01:09:47.196Z,78.93
2017-12-26T01:10:53.974Z,78.95
2017-12-26T01:12:00.702Z,78.89
2017-12-26T01:13:07.504Z,78.82
2017-12-26T01:14:14.229Z,78.78
2017-12-26T01:15:20.988Z,78.71
2017-12-26T01:16:27.745Z,78.67
2017-12-26T01:17:34.491Z,78.64
2017-12-26T01:18:41.281Z,78.59
2017-12-26T01:19:48.018Z,78.52
2017-12-26T01:20:54.772Z,78.47
2017-12-26T01:22:01.580Z,78.39
2017-12-26T01:23:08.377Z,78.33
2017-12-26T01:24:15.116Z,78.28
2017-12-26T01:25:21.851Z,78.25
2017-12-26T01:26:28.628Z,78.16
2017-12-26T01:27:35.564Z,78.08
2017-12-26T01:28:42.317Z,78.06
2017-12-26T01:29:49.080Z,77.98
2017-12-26T01:30:55.927Z,77.98
2017-12-26T01:32:02.672Z,77.85
2017-12-26T01:33:09.448Z,77.83
2017-12-26T01:34:16.193Z,77.81
2017-12-26T01:35:22.987Z,77.79
2017-12-26T01:36:29.743Z,77.76
2017-12-26T01:37:36.485Z,77.71
2017-12-26T01:38:43.228Z,77.67
2017-12-26T01:39:50.042Z,77.61
2017-12-26T01:40:56.780Z,77.64
2017-12-26T01:42:03.553Z,77.58
2017-12-26T01:43:10.304Z,77.48
2017-12-26T01:44:17.105Z,77.43
2017-12-26T01:45:23.932Z,77.38
2017-12-26T01:46:30.681Z,77.39
2017-12-26T01:47:37.555Z,77.38
2017-12-26T01:48:44.288Z,77.33
2017-12-26T01:49:51.034Z,77.26
2017-12-26T01:50:57.775Z,77.22
2017-12-26T01:52:04.613Z,77.17
2017-12-26T01:53:11.368Z,77.15
2017-12-26T01:54:18.151Z,77.10
2017-12-26T01:55:24.901Z,77.08
2017-12-26T01:56:31.694Z,77.05
2017-12-26T01:57:38.517Z,76.98
2017-12-26T01:58:45.260Z,76.90
2017-12-26T01:59:51.990Z,76.90
2017-12-26T02:00:58.765Z,76.88
2017-12-26T02:02:05.489Z,76.83
2017-12-26T02:03:12.269Z,76.82
2017-12-26T02:04:19.000Z,76.77
2017-12-26T02:05:25.840Z,76.72
2017-12-26T02:06:32.609Z,76.76
2017-12-26T02:07:39.376Z,76.77
2017-12-26T02:08:46.128Z,76.78
2017-12-26T02:09:52.904Z,76.72
2017-12-26T02:10:59.664Z,76.57
2017-12-26T02:12:06.525Z,76.50
2017-12-26T02:13:13.403Z,76.50
2017-12-26T02:14:20.137Z,76.50
2017-12-26T02:15:26.905Z,76.54
2017-12-26T02:16:33.632Z,76.47
2017-12-26T02:17:40.423Z,76.31
2017-12-26T02:18:47.200Z,76.31
2017-12-26T02:19:53.937Z,76.31
2017-12-26T02:21:00.693Z,76.30
2017-12-26T02:22:07.497Z,76.23
2017-12-26T02:23:14.253Z,76.14
2017-12-26T02:24:21.058Z,76.14
2017-12-26T02:25:27.786Z,76.10
2017-12-26T02:26:34.576Z,76.11
2017-12-26T02:27:41.330Z,76.10
2017-12-26T02:28:48.105Z,76.08
2017-12-26T02:29:54.868Z,76.00
2017-12-26T02:31:01.760Z,76.00
2017-12-26T02:32:08.479Z,75.97
2017-12-26T02:33:15.325Z,75.98
2017-12-26T02:34:22.116Z,75.98
2017-12-26T02:35:28.869Z,75.98
2017-12-26T02:36:35.609Z,75.97
2017-12-26T02:37:42.340Z,75.98
2017-12-26T02:38:49.202Z,75.93
2017-12-26T02:39:56.022Z,75.87
2017-12-26T02:41:02.764Z,75.76
2017-12-26T02:42:09.515Z,75.69
2017-12-26T02:43:16.298Z,75.73
2017-12-26T02:44:23.068Z,75.72
2017-12-26T02:45:29.834Z,75.67
2017-12-26T02:46:36.556Z,75.64
2017-12-26T02:47:43.396Z,75.59
2017-12-26T02:48:50.164Z,75.59
2017-12-26T02:49:56.919Z,75.59
2017-12-26T02:51:03.681Z,75.58
2017-12-26T02:52:10.505Z,75.60
2017-12-26T02:53:17.220Z,75.59
2017-12-26T02:54:24.011Z,75.61
2017-12-26T02:55:30.742Z,75.50
2017-12-26T02:56:37.500Z,75.46
2017-12-26T02:57:44.360Z,75.41
2017-12-26T02:58:51.129Z,75.39
2017-12-26T02:59:57.912Z,75.37
2017-12-26T03:01:04.725Z,75.33
2017-12-26T03:02:11.487Z,75.39
2017-12-26T03:03:18.228Z,75.36
2017-12-26T03:04:24.966Z,75.31
2017-12-26T03:05:31.737Z,75.32
2017-12-26T03:06:38.497Z,75.28
2017-12-26T03:07:45.250Z,75.24
2017-12-26T03:08:52.010Z,75.18
2017-12-26T03:09:58.845Z,75.17
2017-12-26T03:11:05.629Z,75.17
2017-12-26T03:12:12.388Z,75.16
2017-12-26T03:13:19.113Z,75.20
2017-12-26T03:14:25.868Z,75.23
2017-12-26T03:15:32.727Z,75.25
2017-12-26T03:16:39.487Z,75.22
2017-12-26T03:17:46.257Z,75.27
2017-12-26T03:18:53.098Z,75.27
2017-12-26T03:19:59.821Z,75.26
2017-12-26T03:21:06.600Z,75.27
2017-12-26T03:22:13.337Z,75.29
2017-12-26T03:22:31.828Z,75.35
2017-12-26T03:23:38.536Z,75.36
2017-12-26T03:24:45.378Z,75.39
2017-12-26T03:25:52.157Z,75.39
2017-12-26T03:26:58.928Z,75.41
2017-12-26T03:28:05.811Z,75.42
2017-12-26T03:29:12.605Z,75.41
2017-12-26T03:30:19.353Z,75.46
2017-12-26T03:31:26.118Z,75.50
2017-12-26T03:32:33.017Z,75.54
2017-12-26T03:33:39.756Z,75.60
2017-12-26T03:34:46.531Z,75.64
2017-12-26T03:35:53.399Z,75.72
2017-12-26T03:37:00.148Z,75.76
2017-12-26T03:38:06.920Z,75.83
2017-12-26T03:39:13.669Z,75.85
2017-12-26T03:40:20.513Z,75.88
2017-12-26T03:41:27.288Z,75.89
2017-12-26T03:42:34.041Z,75.95
2017-12-26T03:43:40.784Z,75.94
2017-12-26T03:44:47.612Z,76.02
2017-12-26T03:45:54.340Z,76.11
2017-12-26T03:47:01.156Z,76.10
2017-12-26T03:48:07.984Z,76.14
2017-12-26T03:49:14.749Z,76.21
2017-12-26T03:50:21.473Z,76.26
2017-12-26T03:51:28.226Z,76.28
2017-12-26T03:52:35.015Z,76.34
2017-12-26T03:53:41.873Z,76.39
2017-12-26T03:54:48.645Z,76.42
2017-12-26T03:55:55.407Z,76.46
2017-12-26T03:57:02.133Z,76.47
2017-12-26T03:58:08.999Z,76.50
2017-12-26T03:59:15.765Z,76.52
2017-12-26T04:00:22.499Z,76.55
2017-12-26T04:01:29.270Z,76.53
2017-12-26T04:02:36.126Z,76.59
2017-12-26T04:03:42.891Z,76.58
2017-12-26T04:04:49.662Z,76.60
2017-12-26T04:05:56.406Z,76.56
2017-12-26T04:07:03.210Z,76.53
2017-12-26T04:08:09.980Z,76.60
2017-12-26T04:09:16.740Z,76.64
2017-12-26T04:10:23.700Z,76.64
2017-12-26T04:11:30.496Z,76.62
2017-12-26T04:12:37.277Z,76.69
2017-12-26T04:13:44.020Z,76.70
2017-12-26T04:14:50.802Z,76.77
2017-12-26T04:15:57.567Z,76.84
2017-12-26T04:17:04.340Z,76.90
2017-12-26T04:18:11.095Z,76.91
2017-12-26T04:19:17.900Z,76.94
2017-12-26T04:20:24.650Z,76.98
2017-12-26T04:21:31.436Z,77.04
2017-12-26T04:22:38.168Z,77.06
2017-12-26T04:23:45.054Z,77.12
2017-12-26T04:24:51.837Z,77.14
2017-12-26T04:25:58.593Z,77.19
2017-12-26T04:27:05.318Z,77.24
2017-12-26T04:28:12.162Z,77.28
2017-12-26T04:29:18.930Z,77.31
2017-12-26T04:30:25.682Z,77.34
2017-12-26T04:31:32.420Z,77.38
2017-12-26T04:32:39.270Z,77.43
2017-12-26T04:33:46.053Z,77.48
2017-12-26T04:34:52.871Z,77.53
2017-12-26T04:35:59.725Z,77.55
2017-12-26T04:37:06.461Z,77.63
2017-12-26T04:38:13.237Z,77.67
2017-12-26T04:39:19.989Z,77.71
2017-12-26T04:40:26.815Z,77.75
2017-12-26T04:41:33.701Z,77.80
2017-12-26T04:42:40.605Z,77.86
2017-12-26T04:43:47.353Z,77.91
2017-12-26T04:44:54.137Z,77.94
2017-12-26T04:46:00.853Z,77.98
2017-12-26T04:47:07.719Z,78.04
2017-12-26T04:48:14.500Z,78.08
2017-12-26T04:49:21.272Z,78.07
2017-12-26T04:50:28.014Z,78.10
2017-12-26T04:51:34.845Z,78.16
2017-12-26T04:52:41.604Z,78.21
2017-12-26T04:53:48.397Z,78.26
2017-12-26T04:54:55.208Z,78.31
2017-12-26T04:56:01.949Z,78.34
2017-12-26T04:57:08.817Z,78.42
2017-12-26T04:58:15.584Z,78.43
2017-12-26T04:59:22.405Z,78.49
2017-12-26T05:00:29.201Z,78.58
2017-12-26T05:01:35.945Z,78.61
2017-12-26T05:02:42.708Z,78.64
2017-12-26T05:03:49.492Z,78.67
2017-12-26T05:04:56.279Z,78.72
2017-12-26T05:06:03.042Z,78.74
2017-12-26T05:07:09.813Z,78.79
2017-12-26T05:08:16.606Z,78.84
2017-12-26T05:09:23.377Z,78.93
2017-12-26T05:10:30.104Z,78.96
2017-12-26T05:11:36.898Z,79.00
2017-12-26T05:12:43.706Z,79.07
2017-12-26T05:13:50.460Z,79.10
2017-12-26T05:14:57.228Z,79.15
2017-12-26T05:16:04.023Z,79.20
2017-12-26T05:17:10.800Z,79.22
2017-12-26T05:18:17.560Z,79.26
2017-12-26T05:19:24.324Z,79.30
2017-12-26T05:20:31.068Z,79.40
2017-12-26T05:21:37.905Z,79.44
2017-12-26T05:22:44.661Z,79.49
2017-12-26T05:23:51.416Z,79.54
2017-12-26T05:24:58.136Z,79.57
2017-12-26T05:26:04.994Z,79.61
2017-12-26T05:27:11.772Z,79.65
2017-12-26T05:28:18.513Z,79.73
2017-12-26T05:29:25.270Z,79.76
2017-12-26T05:30:32.105Z,79.81
2017-12-26T05:31:38.873Z,79.88
2017-12-26T05:32:45.633Z,79.95
2017-12-26T05:33:52.349Z,80.03
2017-12-26T05:34:59.073Z,80.08
2017-12-26T05:36:05.869Z,80.11
2017-12-26T05:37:12.728Z,80.16
2017-12-26T05:38:19.588Z,80.25
2017-12-26T05:39:26.343Z,80.26
2017-12-26T05:40:33.105Z,80.31
2017-12-26T05:41:39.877Z,80.41
2017-12-26T05:42:46.633Z,80.46
2017-12-26T05:43:53.451Z,80.50
2017-12-26T05:45:00.220Z,80.57
2017-12-26T05:46:06.949Z,80.62
2017-12-26T05:47:13.729Z,80.72
2017-12-26T05:48:20.589Z,80.79
2017-12-26T05:49:27.329Z,80.82
2017-12-26T05:50:34.079Z,80.93
2017-12-26T05:51:40.800Z,80.96
2017-12-26T05:52:47.672Z,81.06
2017-12-26T05:53:54.429Z,81.08
2017-12-26T05:55:01.275Z,81.20
2017-12-26T05:56:08.108Z,81.24
2017-12-26T05:57:14.856Z,81.39
2017-12-26T05:58:21.610Z,81.46
2017-12-26T05:59:28.366Z,81.56
2017-12-26T06:00:35.327Z,81.68
2017-12-26T06:01:42.148Z,81.79
2017-12-26T06:02:49.064Z,81.85
2017-12-26T06:03:55.799Z,81.96
2017-12-26T06:05:02.552Z,82.01
2017-12-26T06:06:09.501Z,82.14
2017-12-26T06:07:16.215Z,82.24
2017-12-26T06:08:22.969Z,82.39
2017-12-26T06:09:29.722Z,82.47
2017-12-26T06:10:36.453Z,82.55
2017-12-26T06:11:43.276Z,82.64
2017-12-26T06:12:50.174Z,82.76
2017-12-26T06:13:57.129Z,82.88
2017-12-26T06:15:03.909Z,82.97
2017-12-26T06:16:10.664Z,83.06
2017-12-26T06:17:17.531Z,83.13
2017-12-26T06:18:24.296Z,83.28
2017-12-26T06:19:31.065Z,83.38
2017-12-26T06:20:37.801Z,83.49
2017-12-26T06:21:44.671Z,83.53
2017-12-26T06:22:51.529Z,83.65
2017-12-26T06:23:58.261Z,83.73
2017-12-26T06:25:05.169Z,83.87
2017-12-26T06:26:11.924Z,83.97
2017-12-26T06:27:18.717Z,84.06
2017-12-26T06:28:25.509Z,84.18
2017-12-26T06:29:32.306Z,84.22
2017-12-26T06:30:39.318Z,84.33
2017-12-26T06:31:46.061Z,84.46
2017-12-26T06:32:52.831Z,84.51
2017-12-26T06:33:59.553Z,84.66
2017-12-26T06:35:06.408Z,84.75
2017-12-26T06:36:13.165Z,84.84
2017-12-26T06:37:19.905Z,84.95
2017-12-26T06:38:26.664Z,85.03
2017-12-26T06:39:33.627Z,85.10
2017-12-26T06:40:40.393Z,85.21
2017-12-26T06:41:47.137Z,85.31
2017-12-26T06:42:53.998Z,85.37
2017-12-26T06:44:00.738Z,85.47
2017-12-26T06:45:07.615Z,85.55
2017-12-26T06:46:14.472Z,85.66
2017-12-26T06:47:21.265Z,85.76
2017-12-26T06:48:28.160Z,85.87
2017-12-26T06:49:34.920Z,85.95
2017-12-26T06:50:41.701Z,86.04
2017-12-26T06:51:48.461Z,86.13
2017-12-26T06:52:55.260Z,86.21
2017-12-26T06:54:02.029Z,86.26
2017-12-26T06:55:08.818Z,86.38
2017-12-26T06:56:15.732Z,86.46
2017-12-26T06:57:22.575Z,86.54
2017-12-26T06:58:29.477Z,86.60
2017-12-26T06:59:37.610Z,86.68
2017-12-26T07:00:43.424Z,86.76
2017-12-26T07:01:50.191Z,86.87
2017-12-26T07:02:56.983Z,86.96
2017-12-26T07:04:03.804Z,87.04
2017-12-26T07:05:10.581Z,87.11
2017-12-26T07:06:17.368Z,87.20
2017-12-26T07:07:24.267Z,87.25
2017-12-26T07:08:31.021Z,87.28
2017-12-26T07:09:37.794Z,87.37
2017-12-26T07:10:44.717Z,87.44
2017-12-26T07:11:51.565Z,87.52
2017-12-26T07:12:58.500Z,87.58
2017-12-26T07:14:05.262Z,87.68
2017-12-26T07:15:12.124Z,87.75
2017-12-26T07:16:18.977Z,87.80
2017-12-26T07:17:25.758Z,87.87
2017-12-26T07:18:32.547Z,87.94
2017-12-26T07:19:39.433Z,87.97
2017-12-26T07:20:46.148Z,88.04
2017-12-26T07:21:53.017Z,88.13
2017-12-26T07:22:59.739Z,88.21
2017-12-26T07:24:06.397Z,88.22
2017-12-26T07:25:13.209Z,88.31
2017-12-26T07:26:19.974Z,88.38
2017-12-26T07:27:26.778Z,88.41
2017-12-26T07:28:33.668Z,88.46
2017-12-26T07:29:40.436Z,88.50
2017-12-26T07:30:47.184Z,88.57
2017-12-26T07:31:54.004Z,88.66
2017-12-26T07:33:00.813Z,88.72
2017-12-26T07:34:07.612Z,88.76
2017-12-26T07:35:14.428Z,88.83
2017-12-26T07:36:21.276Z,88.88
2017-12-26T07:37:28.037Z,88.95
2017-12-26T07:38:34.838Z,88.97
2017-12-26T07:39:41.787Z,89.06
2017-12-26T07:40:48.593Z,89.13
2017-12-26T07:41:55.376Z,89.16
2017-12-26T07:43:02.240Z,89.22
2017-12-26T07:44:09.091Z,89.26
2017-12-26T07:45:15.858Z,89.29
2017-12-26T07:46:22.727Z,89.36
2017-12-26T07:47:29.597Z,89.38
2017-12-26T07:48:36.538Z,89.42
2017-12-26T07:49:43.353Z,89.46
2017-12-26T07:50:50.231Z,89.50
2017-12-26T07:51:57.084Z,89.57
2017-12-26T07:53:04.028Z,89.61
2017-12-26T07:54:10.882Z,89.65
2017-12-26T07:55:17.732Z,89.71
2017-12-26T07:56:25.649Z,89.70
2017-12-26T07:57:31.501Z,89.78
2017-12-26T07:58:38.425Z,89.81
2017-12-26T07:59:45.407Z,89.83
2017-12-26T08:00:52.548Z,89.90
2017-12-26T08:01:58.943Z,89.92
2017-12-26T08:03:05.919Z,89.95
2017-12-26T08:04:13.077Z,90.03
2017-12-26T08:05:19.776Z,90.08
2017-12-26T08:06:26.400Z,90.14
2017-12-26T08:07:33.049Z,90.23
2017-12-26T08:08:39.950Z,90.26
2017-12-26T08:09:46.860Z,90.32
2017-12-26T08:10:53.914Z,90.35
2017-12-26T08:12:00.782Z,90.40
2017-12-26T08:13:07.620Z,90.44
2017-12-26T08:14:14.585Z,90.48
2017-12-26T08:15:21.525Z,90.51
2017-12-26T08:16:28.414Z,90.57
2017-12-26T08:17:35.512Z,90.59
2017-12-26T08:18:42.407Z,90.61
2017-12-26T08:19:49.296Z,90.67
2017-12-26T08:20:56.156Z,90.69
2017-12-26T08:22:03.151Z,90.72
2017-12-26T08:23:10.122Z,90.74
2017-12-26T08:24:17.038Z,90.76
2017-12-26T08:25:23.856Z,90.79
2017-12-26T08:26:30.854Z,90.85
2017-12-26T08:27:38.682Z,90.84
2017-12-26T08:28:44.837Z,90.87
2017-12-26T08:29:52.394Z,90.91
2017-12-26T08:30:58.796Z,90.93
2017-12-26T08:32:06.528Z,90.95
2017-12-26T08:33:12.665Z,90.96
2017-12-26T08:34:19.798Z,90.96
2017-12-26T08:35:26.981Z,90.99
2017-12-26T08:36:33.703Z,91.03
2017-12-26T08:37:40.574Z,91.06
2017-12-26T08:38:47.175Z,91.11
2017-12-26T08:39:54.402Z,91.14
2017-12-26T08:41:07.477Z,91.15
2017-12-26T08:42:09.240Z,91.21
2017-12-26T08:43:15.699Z,91.21
2017-12-26T08:48:23.195Z,91.25
2017-12-26T08:49:28.097Z,91.26
2017-12-26T08:50:35.267Z,91.27
2017-12-26T08:51:42.018Z,91.29
2017-12-26T08:55:02.969Z,91.36
2017-12-26T08:56:10.066Z,91.38
2017-12-26T08:57:16.457Z,91.41
2017-12-26T08:58:31.801Z,91.41
2017-12-26T08:59:31.133Z,91.43
2017-12-26T09:00:37.469Z,91.42
2017-12-26T09:01:43.923Z,91.43
2017-12-26T09:02:50.806Z,91.43
2017-12-26T09:03:58.125Z,91.48
2017-12-26T09:05:04.810Z,91.49
2017-12-26T09:06:11.861Z,91.50
2017-12-26T09:07:18.831Z,91.52
2017-12-26T09:08:25.900Z,91.52
2017-12-26T09:09:32.730Z,91.54
2017-12-26T09:10:39.540Z,91.54
2017-12-26T09:11:46.311Z,91.53
2017-12-26T09:12:53.066Z,91.54
2017-12-26T09:13:59.860Z,91.54
2017-12-26T09:15:06.749Z,91.59
2017-12-26T09:16:13.676Z,91.58
2017-12-26T09:17:20.474Z,91.58
2017-12-26T09:18:27.249Z,91.58
2017-12-26T09:19:34.031Z,91.61
2017-12-26T09:21:47.964Z,91.59
2017-12-26T09:22:54.889Z,91.59
2017-12-26T09:24:01.826Z,91.63
2017-12-26T09:25:08.705Z,91.68
2017-12-26T09:26:15.714Z,91.71
2017-12-26T09:27:22.732Z,91.72
2017-12-26T09:28:29.450Z,91.72
2017-12-26T09:29:36.454Z,91.74
2017-12-26T09:30:43.147Z,91.78
2017-12-26T09:31:50.089Z,91.77
2017-12-26T09:32:56.928Z,91.79
2017-12-26T09:34:03.848Z,91.81
2017-12-26T09:35:10.834Z,91.81
2017-12-26T09:36:18.838Z,91.81
2017-12-26T09:37:24.978Z,91.80
2017-12-26T09:38:31.812Z,91.83
2017-12-26T09:39:38.766Z,91.83
2017-12-26T09:40:45.933Z,91.83
2017-12-26T09:41:52.784Z,91.83
2017-12-26T09:42:59.703Z,91.84
2017-12-26T09:44:06.516Z,91.83
2017-12-26T09:45:13.365Z,91.84
2017-12-26T09:46:20.306Z,91.82
2017-12-26T09:47:27.149Z,91.82
2017-12-26T09:48:33.949Z,91.81
2017-12-26T09:49:40.776Z,91.81
2017-12-26T09:50:47.598Z,91.81
2017-12-26T09:51:54.457Z,91.82
2017-12-26T09:53:01.376Z,91.81
2017-12-26T09:54:08.216Z,91.83
2017-12-26T09:55:15.038Z,91.82
2017-12-26T09:56:21.971Z,91.86
2017-12-26T09:57:29.898Z,91.85
2017-12-26T09:58:36.000Z,91.86
2017-12-26T09:59:42.863Z,91.87
2017-12-26T10:00:49.769Z,91.89
2017-12-26T10:01:56.621Z,91.86
2017-12-26T10:03:03.473Z,91.84
2017-12-26T10:04:10.289Z,91.86
2017-12-26T10:05:17.264Z,91.85
2017-12-26T10:06:24.025Z,91.87
2017-12-26T10:07:31.056Z,91.83
2017-12-26T10:08:37.845Z,91.83
2017-12-26T10:09:44.652Z,91.84
2017-12-26T10:10:51.676Z,91.87
2017-12-26T10:11:58.496Z,91.85
2017-12-26T10:13:05.293Z,91.85
2017-12-26T10:14:12.078Z,91.84
2017-12-26T10:15:18.845Z,91.83
2017-12-26T10:16:25.632Z,91.82
2017-12-26T10:17:32.384Z,91.83
2017-12-26T10:18:39.172Z,91.85
2017-12-26T10:19:45.945Z,91.85
2017-12-26T10:20:52.708Z,91.85
2017-12-26T10:21:59.601Z,91.85
2017-12-26T10:23:06.369Z,91.84
2017-12-26T10:24:13.129Z,91.82
2017-12-26T10:25:19.922Z,91.84
2017-12-26T10:26:26.714Z,91.83
2017-12-26T10:27:33.554Z,91.83
2017-12-26T10:28:40.376Z,91.82
2017-12-26T10:29:47.285Z,91.82
2017-12-26T10:30:54.145Z,91.85
2017-12-26T10:32:00.889Z,91.86
2017-12-26T10:33:07.653Z,91.89
2017-12-26T10:34:14.448Z,91.90
2017-12-26T10:35:21.290Z,91.92
2017-12-26T10:36:28.075Z,91.91
2017-12-26T10:37:34.829Z,91.94
2017-12-26T10:38:41.686Z,91.94
2017-12-26T10:39:48.462Z,91.93
2017-12-26T10:40:55.215Z,91.96
2017-12-26T10:42:01.964Z,92.00
2017-12-26T10:43:08.791Z,92.04
2017-12-26T10:44:15.565Z,92.02
2017-12-26T10:45:22.353Z,92.00
2017-12-26T10:46:29.246Z,91.96
2017-12-26T10:47:35.986Z,91.97
2017-12-26T10:48:42.734Z,91.95
2017-12-26T10:49:49.535Z,91.91
2017-12-26T10:50:56.439Z,91.91
2017-12-26T10:52:03.237Z,91.91
2017-12-26T10:53:10.015Z,91.88
2017-12-26T10:54:16.822Z,91.88
2017-12-26T10:55:23.609Z,91.87
2017-12-26T10:56:30.422Z,91.85
2017-12-26T10:57:37.249Z,91.85
2017-12-26T10:58:44.012Z,91.81
2017-12-26T10:59:50.756Z,91.80
2017-12-26T11:00:57.547Z,91.77
2017-12-26T11:02:04.361Z,91.77
2017-12-26T11:03:11.146Z,91.77
2017-12-26T11:04:18.151Z,91.74
2017-12-26T11:05:24.922Z,91.74
2017-12-26T11:06:31.686Z,91.70
2017-12-26T11:07:38.572Z,91.65
2017-12-26T11:08:45.321Z,91.66
2017-12-26T11:09:52.058Z,91.66
2017-12-26T11:10:58.801Z,91.65
2017-12-26T11:12:05.808Z,91.64
2017-12-26T11:13:12.546Z,91.60
2017-12-26T11:14:19.306Z,91.60
2017-12-26T11:15:26.128Z,91.60
2017-12-26T11:16:32.880Z,91.60
2017-12-26T11:17:39.649Z,91.60
2017-12-26T11:18:46.390Z,91.61
2017-12-26T11:19:53.178Z,91.61
2017-12-26T11:20:59.919Z,91.58
2017-12-26T11:22:06.649Z,91.52
2017-12-26T11:23:13.414Z,91.53
2017-12-26T11:24:20.266Z,91.55
2017-12-26T11:25:27.018Z,91.50
2017-12-26T11:26:33.805Z,91.51
2017-12-26T11:27:40.541Z,91.49
2017-12-26T11:28:47.398Z,91.48
2017-12-26T11:29:54.266Z,91.46
2017-12-26T11:31:00.996Z,91.45
2017-12-26T11:32:07.802Z,91.44
2017-12-26T11:33:14.565Z,91.41
2017-12-26T11:34:21.338Z,91.36
2017-12-26T11:35:28.078Z,91.34
2017-12-26T11:36:34.861Z,91.27
2017-12-26T11:37:41.597Z,91.19
2017-12-26T11:38:48.450Z,91.16
2017-12-26T11:39:55.282Z,91.11
2017-12-26T11:41:02.030Z,91.08
2017-12-26T11:42:08.777Z,91.03
2017-12-26T11:43:15.542Z,90.96
2017-12-26T11:44:22.380Z,90.89
2017-12-26T11:45:29.146Z,90.85
2017-12-26T11:46:35.881Z,90.71
2017-12-26T11:47:42.622Z,90.60
2017-12-26T11:48:49.423Z,90.50
2017-12-26T11:49:56.174Z,90.40
2017-12-26T11:51:02.945Z,90.35
2017-12-26T11:52:09.816Z,90.20
2017-12-26T11:53:16.577Z,90.07
2017-12-26T11:54:23.362Z,90.04
2017-12-26T11:55:30.106Z,89.93
2017-12-26T11:56:36.907Z,89.81
2017-12-26T11:57:43.654Z,89.73
2017-12-26T11:58:50.386Z,89.58
2017-12-26T11:59:57.153Z,89.45
2017-12-26T12:01:03.979Z,89.40
2017-12-26T12:02:10.746Z,89.39
2017-12-26T12:03:17.499Z,89.27
2017-12-26T12:04:24.230Z,89.27
2017-12-26T12:05:31.079Z,89.24
2017-12-26T12:06:37.840Z,89.17
2017-12-26T12:07:44.577Z,89.15
2017-12-26T12:08:51.313Z,89.08
2017-12-26T12:09:58.186Z,88.98
2017-12-26T12:11:04.939Z,88.96
2017-12-26T12:12:11.747Z,88.95
2017-12-26T12:13:18.582Z,88.87
2017-12-26T12:14:26.637Z,88.79
2017-12-26T12:15:32.397Z,88.73
2017-12-26T12:16:39.145Z,88.63
2017-12-26T12:17:45.886Z,88.61
2017-12-26T12:18:52.611Z,88.56
2017-12-26T12:19:59.555Z,88.52
2017-12-26T12:21:06.327Z,88.47
2017-12-26T12:22:13.077Z,88.38
2017-12-26T12:23:19.922Z,88.30
2017-12-26T12:24:26.686Z,88.27
2017-12-26T12:25:33.570Z,88.21
2017-12-26T12:26:40.340Z,88.19
2017-12-26T12:27:47.091Z,88.20
2017-12-26T12:28:53.865Z,88.12
2017-12-26T12:30:00.603Z,87.97
2017-12-26T12:31:07.454Z,87.90
2017-12-26T12:32:14.230Z,87.89
2017-12-26T12:33:21.067Z,87.80
2017-12-26T12:34:27.862Z,87.76
2017-12-26T12:35:34.617Z,87.69
2017-12-26T12:36:41.348Z,87.57
2017-12-26T12:37:48.088Z,87.51
2017-12-26T12:38:54.834Z,87.32
2017-12-26T12:40:01.582Z,87.28
2017-12-26T12:41:08.334Z,87.17
2017-12-26T12:42:15.070Z,87.03
2017-12-26T12:43:21.818Z,86.94
2017-12-26T12:44:28.657Z,86.89
2017-12-26T12:45:35.373Z,86.85
2017-12-26T12:46:42.156Z,86.76
2017-12-26T12:47:48.889Z,86.76
2017-12-26T12:48:55.801Z,86.74
2017-12-26T12:50:02.609Z,86.64
2017-12-26T12:51:09.470Z,86.57
2017-12-26T12:52:16.234Z,86.48
2017-12-26T12:53:23.181Z,86.42
2017-12-26T12:54:29.993Z,86.34
2017-12-26T12:55:36.718Z,86.29
2017-12-26T12:56:43.535Z,86.23
2017-12-26T12:57:50.290Z,86.17
2017-12-26T12:58:57.110Z,86.07
2017-12-26T13:00:03.854Z,85.98
2017-12-26T13:01:10.654Z,85.85
2017-12-26T13:02:17.782Z,85.75
2017-12-26T13:03:24.537Z,85.73
2017-12-26T13:04:31.354Z,85.71
2017-12-26T13:05:38.094Z,85.59
2017-12-26T13:06:44.873Z,85.54
2017-12-26T13:07:51.614Z,85.49
2017-12-26T13:08:58.434Z,85.36
2017-12-26T13:10:05.205Z,85.27
2017-12-26T13:11:11.953Z,85.23
2017-12-26T13:12:18.757Z,85.14
2017-12-26T13:13:25.575Z,85.13
2017-12-26T13:14:32.327Z,85.00
2017-12-26T13:15:39.116Z,84.98
2017-12-26T13:16:45.977Z,84.87
2017-12-26T13:17:52.750Z,84.79
2017-12-26T13:18:59.529Z,84.70
2017-12-26T13:20:06.286Z,84.59
2017-12-26T13:21:13.038Z,84.53
2017-12-26T13:22:19.806Z,84.45
2017-12-26T13:23:26.545Z,84.37
2017-12-26T13:24:33.277Z,84.33
2017-12-26T13:25:40.129Z,84.21
2017-12-26T13:26:46.965Z,84.20
2017-12-26T13:27:53.747Z,84.11
2017-12-26T13:29:00.594Z,84.07
2017-12-26T13:30:07.347Z,84.03
2017-12-26T13:31:14.098Z,83.95
2017-12-26T13:32:20.851Z,83.86
2017-12-26T13:33:27.694Z,83.85
2017-12-26T13:34:35.087Z,83.76
2017-12-26T13:35:41.341Z,83.71
2017-12-26T13:36:48.121Z,83.66
2017-12-26T13:37:54.884Z,83.65
2017-12-26T13:39:01.644Z,83.62
2017-12-26T13:40:08.444Z,83.47
2017-12-26T13:41:15.224Z,83.39
2017-12-26T13:42:21.963Z,83.37
2017-12-26T13:43:28.983Z,83.27
2017-12-26T13:44:35.888Z,83.17
2017-12-26T13:45:42.640Z,83.14
2017-12-26T13:46:49.471Z,83.08
2017-12-26T13:47:56.271Z,82.92
2017-12-26T13:49:03.141Z,82.83
2017-12-26T13:50:11.179Z,82.73
2017-12-26T13:51:16.608Z,82.64
2017-12-26T13:52:23.431Z,82.59
2017-12-26T13:53:30.379Z,82.54
2017-12-26T13:54:37.293Z,82.40
2017-12-26T13:55:43.953Z,82.37
2017-12-26T13:56:50.939Z,82.31
2017-12-26T13:57:57.758Z,82.27
2017-12-26T13:59:04.616Z,82.21
2017-12-26T14:00:11.399Z,82.12
2017-12-26T14:01:18.528Z,82.06
2017-12-26T14:02:25.321Z,82.01
2017-12-26T14:03:32.157Z,81.95
2017-12-26T14:04:38.946Z,81.84
2017-12-26T14:05:45.737Z,81.79
2017-12-26T14:06:52.589Z,81.77
2017-12-26T14:07:59.319Z,81.72
2017-12-26T14:09:06.253Z,81.64
2017-12-26T14:10:13.053Z,81.60
2017-12-26T14:11:19.853Z,81.59
2017-12-26T14:12:26.634Z,81.56
2017-12-26T14:13:33.509Z,81.54
2017-12-26T14:14:40.296Z,81.48
2017-12-26T14:15:47.082Z,81.42
2017-12-26T14:16:53.924Z,81.35
2017-12-26T14:18:00.740Z,81.24
2017-12-26T14:19:07.524Z,81.24
2017-12-26T14:20:14.404Z,81.17
2017-12-26T14:21:21.114Z,81.11
2017-12-26T14:22:27.836Z,81.10
2017-12-26T14:23:34.600Z,81.11
2017-12-26T14:24:41.348Z,81.07
2017-12-26T14:25:48.164Z,80.97
2017-12-26T14:26:54.954Z,80.87